Austin Straubel International Airport
KGRB : now visible

Airfield :











YOU CAN JOIN US ON...

 
LOGIN :

Register | Disclaimer

   EN    FR    IT 

 









Legend :    VFR   Marginal VFR   IFR   Intensive IFR   Very Intensive IFR
Visi :
Ceiling :
>= 8 km
>= 3000ft
5 to 8 km
1000 to 3000 ft
1500m to 5 km
500 to 1000 ft
800 to 1500m
200 to 500 ft
< 800m
< 200 ft
Symbols :   Thunderstorms  Fog  Heavy snow  Heavy precipitations  Wind > 20 kt






- Airport Elevation : 695 ft
- IATA code : GRB


KGRB - Austin Straubel International

CURRENT METAR :
  • 181953Z 13013G21KT 10SM FEW085 24/13 A3020 RMK AO2 PK WND 15027/1916 SLP228 T02390128

EXPIRED METARs :
  • 181853Z 16018G26KT 10SM CLR 24/12 A3022 RMK AO2 PK WND 14026/1825 SLP234 T02440122
  • 181753Z 17014KT 10SM CLR 24/12 A3023 RMK AO2 SLP236 T02440122 10244 20133 58008

TAF KGRB
Valid from the 18 at 18:00 until the 19 at 18:00 UTC


181744Z 1818/1918 14011G18KT P6SM SCT040
FM190300 16007KT P6SM -SHRA BKN045
FM190800 15010G17KT P6SM -SHRA OVC022 WS020/17040KT
FM191100 15009G16KT 6SM -SHRA BR OVC011
FM191300 18010G16KT 6SM -SHRA BR BKN007
KZMP FIR / North America



MET'MAP, your aeronautical weather chart ! - Copyright ORBIFLY December 2007 - Disclaimer

ORBIFLY MET'MAP TEAM :

Programming & Development : Alexandra Zaïnal
Concept & original design : Baudouin d'Aumeries
Assistance for programming : Marc-Olivier Méhu
Technical & hardware support : Manuel Goepfert

Contact : metmap@orbifly.com




SOURCES & CREDITS :

   NOAA       Earth
Advisory